Chicago Lawn, Illinois
Current Conditions -  °F | °C
As of 2:53 PM on Saturday 20 Dec 2014 (Local Time) from KMDW Reporting Station
Light Snow Light Snow  
Wind Chill: 29°   Ceiling: 2100
Heat Index: 34°   Visibility: 10mi
Dew Point: 25°   Wind: 6mph
Humidity: 70%   Direction: 220°SW
Pressure: 30.24"   Gusts: NA
Location:  41.7761°N, 87.7143°W
Report Text: KMDW 202053Z 22005KT 10SM -SN BKN021 BKN055 OVC070 01/M04 A3024 RMK AO2 SNE01B28 SLP253 P0000 60000 T00111039 56009
Loading
Personal Weather Stations






























Interactive Weather Map New forecast layout! Learn more

10-Day Weather Forecast

Advertisements
Track Severe Weather on mobile